Time;durP1;ratioP1;P1;durP2;ratioP2;P2;SDS_P1;SDS_P2;PMS_P1;PMS_P2;Temp;Humidity;BMP_temperature;BMP_pressure;BME280_temperature;BME280_humidity;BME280_pressure;Samples;Min_cycle;Max_cycle;Signal;HPM_P1;HPM_P2
2021/11/20 00:02:30;;;;;;;5.75;3.30;;;;;;;;;;5036914;28;20896;-67
2021/11/20 00:05:15;;;;;;;6.05;3.30;;;;;;;;;;5028585;28;20869;-67
2021/11/20 00:07:47;;;;;;;5.57;3.00;;;;;;;;;;5056083;28;20387;-68
2021/11/20 00:10:22;;;;;;;6.22;3.20;;;;;;;;;;5024518;28;20403;-68
2021/11/20 00:13:00;;;;;;;5.88;3.10;;;;;;;;;;5028879;28;20390;-67
2021/11/20 00:15:33;;;;;;;4.10;2.92;;;;;;;;;;5026193;28;20409;-67
2021/11/20 00:18:20;;;;;;;4.38;2.72;;;;;;;;;;5030151;28;20471;-67
2021/11/20 00:20:55;;;;;;;4.45;2.78;;;;;;;;;;5043058;28;20402;-67
2021/11/20 00:23:43;;;;;;;4.30;2.83;;;;;;;;;;5032506;28;20424;-67
2021/11/20 00:26:14;;;;;;;4.07;2.78;;;;;;;;;;5036074;28;20414;-67
2021/11/20 00:31:51;;;;;;;5.25;2.85;;;;;;;;;;5006128;28;20732;-68
2021/11/20 00:34:41;;;;;;;3.97;2.60;;;;;;;;;;5031792;28;20394;-68
2021/11/20 00:37:12;;;;;;;4.13;2.50;;;;;;;;;;5007949;28;20437;-68
2021/11/20 00:39:43;;;;;;;4.18;2.60;;;;;;;;;;5025220;28;20507;-67
2021/11/20 00:42:14;;;;;;;3.80;2.45;;;;;;;;;;5059447;28;20385;-68
2021/11/20 00:44:48;;;;;;;6.28;2.85;;;;;;;;;;5042217;28;20400;-67
2021/11/20 00:47:18;;;;;;;4.07;2.90;;;;;;;;;;5045584;28;20644;-67
2021/11/20 00:49:50;;;;;;;4.07;2.73;;;;;;;;;;5040767;28;20407;-67
2021/11/20 00:52:25;;;;;;;3.85;2.65;;;;;;;;;;5040859;28;20411;-67
2021/11/20 00:54:56;;;;;;;5.03;2.63;;;;;;;;;;5041416;28;20411;-68
2021/11/20 00:57:27;;;;;;;4.65;2.78;;;;;;;;;;5039364;28;20491;-67
2021/11/20 00:59:57;;;;;;;4.00;2.50;;;;;;;;;;5043183;28;20430;-67
2021/11/20 01:02:27;;;;;;;3.13;2.60;;;;;;;;;;5060129;28;20650;-67
2021/11/20 01:04:58;;;;;;;3.63;2.53;;;;;;;;;;5063039;28;20392;-67
2021/11/20 01:07:29;;;;;;;3.10;2.08;;;;;;;;;;5069821;28;20796;-67
2021/11/20 01:10:01;;;;;;;3.70;2.42;;;;;;;;;;5056634;28;20400;-68
2021/11/20 01:12:34;;;;;;;3.33;2.40;;;;;;;;;;5056589;28;20397;-67
2021/11/20 01:15:06;;;;;;;4.15;2.53;;;;;;;;;;5058518;28;20406;-67
2021/11/20 01:17:39;;;;;;;3.58;2.40;;;;;;;;;;5060735;28;21229;-67
2021/11/20 01:20:11;;;;;;;3.33;2.30;;;;;;;;;;5071952;28;20406;-68
2021/11/20 01:22:43;;;;;;;2.50;2.30;;;;;;;;;;5061684;28;20425;-67
2021/11/20 01:25:15;;;;;;;2.30;2.10;;;;;;;;;;5043509;28;21036;-68
2021/11/20 01:27:45;;;;;;;4.22;2.28;;;;;;;;;;5061465;28;20388;-67
2021/11/20 01:30:18;;;;;;;2.95;2.30;;;;;;;;;;5057420;28;20398;-67
2021/11/20 01:32:47;;;;;;;3.20;2.00;;;;;;;;;;5063014;28;20394;-67
2021/11/20 01:35:16;;;;;;;2.63;2.42;;;;;;;;;;5061741;28;20407;-67
2021/11/20 01:37:48;;;;;;;2.38;2.17;;;;;;;;;;5060524;28;20772;-68
2021/11/20 01:40:20;;;;;;;2.55;2.33;;;;;;;;;;5071607;28;20409;-67
2021/11/20 01:42:50;;;;;;;4.50;2.50;;;;;;;;;;5062641;28;20421;-67
2021/11/20 01:45:25;;;;;;;2.40;2.20;;;;;;;;;;5061605;28;20473;-67
2021/11/20 01:48:08;;;;;;;2.50;2.30;;;;;;;;;;5066904;28;20406;-67
2021/11/20 01:50:44;;;;;;;2.60;2.40;;;;;;;;;;5090070;28;20409;-67
2021/11/20 01:53:20;;;;;;;2.78;1.98;;;;;;;;;;5068183;28;20504;-66
2021/11/20 01:56:02;;;;;;;2.63;2.30;;;;;;;;;;5088272;28;20403;-67
2021/11/20 01:58:48;;;;;;;2.80;2.50;;;;;;;;;;5080473;28;20400;-67
2021/11/20 02:01:24;;;;;;;2.15;1.92;;;;;;;;;;5079350;28;20990;-67
2021/11/20 02:04:08;;;;;;;2.47;2.20;;;;;;;;;;5078239;28;20396;-67
2021/11/20 02:06:42;;;;;;;2.25;2.05;;;;;;;;;;5082429;28;20404;-67
2021/11/20 02:09:28;;;;;;;1.98;1.80;;;;;;;;;;5082557;28;20386;-67
2021/11/20 02:12:03;;;;;;;2.40;1.90;;;;;;;;;;5080093;28;20408;-67
2021/11/20 02:14:34;;;;;;;2.40;2.20;;;;;;;;;;5078672;28;20397;-67
2021/11/20 02:17:08;;;;;;;2.35;2.10;;;;;;;;;;5078956;28;20394;-66
2021/11/20 02:19:40;;;;;;;2.20;2.00;;;;;;;;;;5065551;28;20408;-67
2021/11/20 02:22:38;;;;;;;2.25;2.05;;;;;;;;;;5085520;28;20375;-67
2021/11/20 02:25:07;;;;;;;2.30;2.10;;;;;;;;;;5082849;28;20480;-67
2021/11/20 02:27:42;;;;;;;2.72;2.35;;;;;;;;;;5069226;28;20911;-67
2021/11/20 02:30:16;;;;;;;2.15;2.03;;;;;;;;;;5099003;28;20400;-67
2021/11/20 02:32:47;;;;;;;2.30;1.95;;;;;;;;;;5088269;28;20398;-67
2021/11/20 02:35:19;;;;;;;2.20;2.00;;;;;;;;;;5087966;28;20394;-67
2021/11/20 02:37:49;;;;;;;2.30;2.10;;;;;;;;;;5050671;28;20410;-67
2021/11/20 02:40:20;;;;;;;2.20;2.00;;;;;;;;;;5086283;28;20398;-67
2021/11/20 02:42:50;;;;;;;2.35;2.15;;;;;;;;;;5082985;28;20919;-67
2021/11/20 02:45:23;;;;;;;2.28;2.10;;;;;;;;;;5083208;28;20888;-67
2021/11/20 02:47:54;;;;;;;2.50;2.20;;;;;;;;;;5088578;28;20394;-67
2021/11/20 02:50:32;;;;;;;2.60;2.40;;;;;;;;;;5066807;28;20417;-67
2021/11/20 02:53:12;;;;;;;2.60;2.40;;;;;;;;;;5082574;28;20593;-67
2021/11/20 02:55:50;;;;;;;2.60;2.40;;;;;;;;;;5083616;28;20442;-67
2021/11/20 02:58:22;;;;;;;2.78;2.35;;;;;;;;;;5089780;28;20821;-68
2021/11/20 03:01:04;;;;;;;2.65;2.45;;;;;;;;;;5069844;28;20463;-68
2021/11/20 03:03:39;;;;;;;2.58;2.38;;;;;;;;;;5088709;28;20487;-68
2021/11/20 03:06:17;;;;;;;2.75;2.55;;;;;;;;;;5091511;28;20399;-68
2021/11/20 03:08:46;;;;;;;3.00;2.70;;;;;;;;;;5072557;28;20417;-67
2021/11/20 03:11:15;;;;;;;2.70;2.50;;;;;;;;;;5098274;28;20386;-67
2021/11/20 03:13:48;;;;;;;2.90;2.60;;;;;;;;;;5065954;28;20867;-67
2021/11/20 03:16:18;;;;;;;3.38;3.08;;;;;;;;;;5071426;28;20402;-68
2021/11/20 03:18:48;;;;;;;2.80;2.60;;;;;;;;;;5083545;28;20417;-67
2021/11/20 03:21:18;;;;;;;3.10;2.80;;;;;;;;;;5095894;28;20962;-67
2021/11/20 03:23:50;;;;;;;2.80;2.60;;;;;;;;;;5067823;28;20424;-67
2021/11/20 03:26:20;;;;;;;3.30;2.92;;;;;;;;;;5083908;28;20403;-68
2021/11/20 03:28:51;;;;;;;3.17;2.97;;;;;;;;;;5063665;28;20400;-67
2021/11/20 03:31:22;;;;;;;3.10;2.80;;;;;;;;;;5070938;28;20425;-67
2021/11/20 03:33:50;;;;;;;3.40;3.10;;;;;;;;;;5068991;28;20627;-67
2021/11/20 03:36:21;;;;;;;3.10;2.90;;;;;;;;;;5086526;28;20392;-67
2021/11/20 03:38:55;;;;;;;3.42;3.13;;;;;;;;;;5062760;28;20415;-67
2021/11/20 03:41:26;;;;;;;3.30;3.00;;;;;;;;;;5069759;28;20492;-68
2021/11/20 03:43:57;;;;;;;3.50;3.20;;;;;;;;;;5083076;28;20411;-67
2021/11/20 03:46:29;;;;;;;3.92;3.60;;;;;;;;;;5087463;28;20412;-67
2021/11/20 03:49:00;;;;;;;3.40;3.10;;;;;;;;;;5075009;28;20401;-67
2021/11/20 03:51:30;;;;;;;3.90;3.60;;;;;;;;;;5087058;28;20392;-67
2021/11/20 03:54:04;;;;;;;3.95;3.47;;;;;;;;;;5089226;28;20402;-67
2021/11/20 03:56:36;;;;;;;3.92;3.58;;;;;;;;;;5084218;28;20509;-67
2021/11/20 03:59:07;;;;;;;3.72;3.42;;;;;;;;;;5079741;28;20396;-67
2021/11/20 04:01:44;;;;;;;4.03;3.70;;;;;;;;;;5057628;28;20866;-68
2021/11/20 04:04:16;;;;;;;4.03;3.67;;;;;;;;;;5066941;28;20398;-67
2021/11/20 04:06:48;;;;;;;4.28;3.88;;;;;;;;;;5070049;28;20770;-68
2021/11/20 04:09:22;;;;;;;4.18;3.88;;;;;;;;;;5086532;28;20445;-67
2021/11/20 04:11:54;;;;;;;4.05;3.75;;;;;;;;;;5086925;28;20414;-68
2021/11/20 04:14:28;;;;;;;4.18;3.83;;;;;;;;;;5059127;28;20417;-67
2021/11/20 04:17:13;;;;;;;4.40;4.07;;;;;;;;;;5061551;28;20863;-68
2021/11/20 04:19:47;;;;;;;4.63;4.22;;;;;;;;;;5085234;28;20477;-67
2021/11/20 04:22:17;;;;;;;4.43;4.03;;;;;;;;;;5086824;28;20407;-67
2021/11/20 04:24:47;;;;;;;4.07;3.72;;;;;;;;;;5067358;28;20404;-67
2021/11/20 04:27:14;;;;;;;4.40;4.10;;;;;;;;;;5084352;28;20429;-67
2021/11/20 04:29:46;;;;;;;4.88;4.47;;;;;;;;;;5090869;28;20419;-67
2021/11/20 04:32:29;;;;;;;4.43;4.00;;;;;;;;;;5084522;28;20434;-67
2021/11/20 04:34:58;;;;;;;4.43;4.10;;;;;;;;;;5089104;28;20392;-67
2021/11/20 04:37:29;;;;;;;4.43;4.13;;;;;;;;;;5064137;28;20462;-67
2021/11/20 04:40:00;;;;;;;4.75;4.35;;;;;;;;;;5075555;28;20410;-67
2021/11/20 04:42:32;;;;;;;4.47;4.10;;;;;;;;;;5071383;28;20754;-67
2021/11/20 04:45:01;;;;;;;4.57;4.20;;;;;;;;;;5075282;28;20389;-67
2021/11/20 04:47:28;;;;;;;4.80;4.40;;;;;;;;;;5072793;28;20407;-67
2021/11/20 04:49:55;;;;;;;5.00;4.50;;;;;;;;;;5069807;28;20478;-67
2021/11/20 04:52:24;;;;;;;5.00;4.60;;;;;;;;;;5066098;28;20402;-67
2021/11/20 04:54:55;;;;;;;5.15;4.75;;;;;;;;;;5064160;28;20401;-67
2021/11/20 04:57:30;;;;;;;4.88;4.50;;;;;;;;;;5078164;28;20389;-67
2021/11/20 05:00:01;;;;;;;5.10;4.70;;;;;;;;;;5067678;28;20388;-67
2021/11/20 05:02:30;;;;;;;4.90;4.50;;;;;;;;;;5075358;28;20388;-67
2021/11/20 05:05:02;;;;;;;4.93;4.53;;;;;;;;;;5079287;28;20551;-67
2021/11/20 05:07:33;;;;;;;5.20;4.80;;;;;;;;;;5091220;28;20832;-67
2021/11/20 05:10:06;;;;;;;5.28;4.88;;;;;;;;;;5084898;28;20398;-67
2021/11/20 05:12:35;;;;;;;5.22;4.82;;;;;;;;;;5075469;28;20712;-67
2021/11/20 05:15:05;;;;;;;5.47;5.07;;;;;;;;;;5075439;28;20404;-67
2021/11/20 05:17:37;;;;;;;5.13;4.72;;;;;;;;;;5094498;28;20436;-67
2021/11/20 05:20:12;;;;;;;5.53;5.13;;;;;;;;;;5067926;28;20422;-67
2021/11/20 05:22:44;;;;;;;5.38;4.97;;;;;;;;;;5098277;28;20417;-68
2021/11/20 05:25:19;;;;;;;6.05;5.55;;;;;;;;;;5076414;28;20393;-67
2021/11/20 05:27:53;;;;;;;5.43;5.03;;;;;;;;;;5079697;28;20404;-68
2021/11/20 05:30:36;;;;;;;5.45;4.85;;;;;;;;;;5079387;28;20388;-68
2021/11/20 05:33:10;;;;;;;5.60;5.20;;;;;;;;;;5074013;28;20988;-67
2021/11/20 05:35:38;;;;;;;5.80;5.35;;;;;;;;;;5072617;28;20405;-67
2021/11/20 05:38:07;;;;;;;6.10;5.60;;;;;;;;;;5071001;28;20865;-67
2021/11/20 05:40:39;;;;;;;6.10;5.60;;;;;;;;;;5079855;28;20898;-68
2021/11/20 05:43:12;;;;;;;5.93;5.43;;;;;;;;;;5089304;28;21150;-68
2021/11/20 05:45:43;;;;;;;6.07;5.57;;;;;;;;;;5060527;28;20430;-69
2021/11/20 05:48:13;;;;;;;6.10;5.60;;;;;;;;;;5075460;28;20494;-69
2021/11/20 05:50:43;;;;;;;6.80;6.30;;;;;;;;;;5073134;28;20396;-69
2021/11/20 05:53:15;;;;;;;6.40;5.90;;;;;;;;;;5101653;28;20400;-69
2021/11/20 05:55:51;;;;;;;6.63;6.03;;;;;;;;;;5074048;28;20427;-69
2021/11/20 05:58:28;;;;;;;6.70;6.20;;;;;;;;;;5057517;28;20404;-69
2021/11/20 06:01:03;;;;;;;6.50;6.00;;;;;;;;;;5066541;28;20765;-69
2021/11/20 06:03:38;;;;;;;6.75;6.25;;;;;;;;;;5088021;28;20555;-69
2021/11/20 06:06:09;;;;;;;7.00;6.40;;;;;;;;;;5084261;28;20396;-69
2021/11/20 06:08:37;;;;;;;7.00;6.40;;;;;;;;;;5077056;28;20398;-69
2021/11/20 06:11:10;;;;;;;7.43;6.82;;;;;;;;;;5103452;28;20396;-69
2021/11/20 06:13:39;;;;;;;7.10;6.50;;;;;;;;;;5071008;28;20995;-69
2021/11/20 06:16:10;;;;;;;7.20;6.60;;;;;;;;;;5078809;28;20403;-69
2021/11/20 06:18:41;;;;;;;6.97;6.47;;;;;;;;;;5105947;28;20394;-69
2021/11/20 06:21:16;;;;;;;7.10;6.50;;;;;;;;;;5112942;28;20396;-69
2021/11/20 06:23:47;;;;;;;6.78;6.20;;;;;;;;;;5079350;28;20401;-69
2021/11/20 06:26:17;;;;;;;7.20;6.60;;;;;;;;;;5067381;28;20495;-69
2021/11/20 06:28:53;;;;;;;7.20;6.60;;;;;;;;;;5104689;28;20395;-69
2021/11/20 06:31:25;;;;;;;7.70;7.00;;;;;;;;;;5109605;28;20407;-69
2021/11/20 06:34:00;;;;;;;7.10;6.50;;;;;;;;;;5102902;28;20439;-69
2021/11/20 06:36:31;;;;;;;7.10;6.50;;;;;;;;;;5103054;28;20401;-69
2021/11/20 06:39:01;;;;;;;6.90;6.40;;;;;;;;;;5069594;28;20415;-68
2021/11/20 06:41:31;;;;;;;6.90;6.40;;;;;;;;;;5089569;28;20766;-68
2021/11/20 06:44:06;;;;;;;7.18;6.57;;;;;;;;;;5095403;28;20398;-68
2021/11/20 06:46:36;;;;;;;6.90;6.30;;;;;;;;;;5073903;28;20399;-68
2021/11/20 06:49:06;;;;;;;7.10;6.50;;;;;;;;;;5086109;28;20430;-68
2021/11/20 06:51:37;;;;;;;7.03;6.43;;;;;;;;;;5095175;28;20402;-67
2021/11/20 06:54:10;;;;;;;7.07;6.50;;;;;;;;;;5089543;28;20392;-67
2021/11/20 06:57:03;;;;;;;6.75;6.25;;;;;;;;;;5098250;28;20430;-68
2021/11/20 07:02:36;;;;;;;7.05;6.47;;;;;;;;;;5087454;28;20415;-65
2021/11/20 07:05:20;;;;;;;6.10;5.60;;;;;;;;;;5083846;28;20388;-66
2021/11/20 07:08:06;;;;;;;6.55;6.05;;;;;;;;;;5083586;28;20396;-65
2021/11/20 07:10:35;;;;;;;6.65;6.15;;;;;;;;;;5097767;28;20393;-68
2021/11/20 07:13:08;;;;;;;6.72;6.22;;;;;;;;;;5079008;28;20405;-68
2021/11/20 07:15:37;;;;;;;6.88;6.38;;;;;;;;;;5096465;28;20404;-68
2021/11/20 07:18:08;;;;;;;6.43;5.93;;;;;;;;;;5078465;28;20428;-68
2021/11/20 07:20:43;;;;;;;6.82;6.22;;;;;;;;;;5089120;28;20770;-71
2021/11/20 07:23:14;;;;;;;6.97;6.38;;;;;;;;;;5085857;28;20380;-72
2021/11/20 07:25:45;;;;;;;7.18;6.57;;;;;;;;;;5085025;28;20713;-72
2021/11/20 07:28:15;;;;;;;7.10;6.50;;;;;;;;;;5084940;28;20399;-71
2021/11/20 07:30:45;;;;;;;7.15;6.55;;;;;;;;;;5085148;28;20390;-73
2021/11/20 07:33:14;;;;;;;7.30;6.70;;;;;;;;;;5088222;28;20407;-73
2021/11/20 07:35:52;;;;;;;7.20;6.60;;;;;;;;;;5080386;28;20390;-73
2021/11/20 07:38:22;;;;;;;6.90;6.35;;;;;;;;;;5080075;28;20869;-70
2021/11/20 07:40:51;;;;;;;7.43;6.73;;;;;;;;;;5048352;28;20406;-71
2021/11/20 07:43:23;;;;;;;6.95;6.35;;;;;;;;;;5081747;28;20391;-72
2021/11/20 07:45:59;;;;;;;7.35;6.70;;;;;;;;;;5082587;28;20481;-75
2021/11/20 07:48:34;;;;;;;7.00;6.30;;;;;;;;;;5083176;28;20400;-73
2021/11/20 07:51:13;;;;;;;7.47;6.87;;;;;;;;;;5078825;28;20857;-73
2021/11/20 07:53:43;;;;;;;8.43;6.72;;;;;;;;;;5090125;28;20853;-72
2021/11/20 07:56:15;;;;;;;6.72;6.13;;;;;;;;;;5060018;28;20399;-75
2021/11/20 07:58:46;;;;;;;7.25;6.57;;;;;;;;;;5071926;28;20391;-74
2021/11/20 08:01:19;;;;;;;7.07;6.50;;;;;;;;;;5079468;28;20397;-75
2021/11/20 08:03:54;;;;;;;7.32;6.72;;;;;;;;;;5085261;28;20400;-74
2021/11/20 08:06:28;;;;;;;6.90;6.25;;;;;;;;;;5063038;28;20413;-73
2021/11/20 08:09:04;;;;;;;7.00;6.40;;;;;;;;;;5072840;28;20402;-71
2021/11/20 08:11:38;;;;;;;7.20;6.60;;;;;;;;;;5084351;28;20413;-70
2021/11/20 08:14:22;;;;;;;7.20;6.50;;;;;;;;;;5092053;28;20382;-69
2021/11/20 08:16:53;;;;;;;6.18;5.57;;;;;;;;;;5073210;28;20909;-71
2021/11/20 08:19:24;;;;;;;6.25;5.75;;;;;;;;;;5086585;28;20398;-71
2021/11/20 08:22:09;;;;;;;7.07;6.47;;;;;;;;;;5066065;28;20483;-69
2021/11/20 08:24:40;;;;;;;7.70;6.90;;;;;;;;;;5066966;28;20408;-69
2021/11/20 08:27:10;;;;;;;8.23;6.47;;;;;;;;;;5075821;28;20393;-70
2021/11/20 08:29:42;;;;;;;7.70;6.85;;;;;;;;;;5069319;28;20400;-71
2021/11/20 08:32:13;;;;;;;7.13;6.53;;;;;;;;;;5081796;28;20417;-74
2021/11/20 08:34:42;;;;;;;7.32;6.63;;;;;;;;;;5064880;28;20394;-72
2021/11/20 08:37:12;;;;;;;10.80;7.30;;;;;;;;;;5080214;28;20399;-71
2021/11/20 08:39:43;;;;;;;11.13;7.95;;;;;;;;;;5084848;28;20463;-71
2021/11/20 08:42:15;;;;;;;10.27;7.57;;;;;;;;;;5080155;28;20411;-71
2021/11/20 08:44:46;;;;;;;13.65;7.50;;;;;;;;;;5091700;28;20398;-72
2021/11/20 08:47:20;;;;;;;13.95;9.13;;;;;;;;;;5082028;28;20403;-70
2021/11/20 08:49:48;;;;;;;13.95;9.98;;;;;;;;;;5089021;28;20386;-71
2021/11/20 08:52:19;;;;;;;11.98;9.40;;;;;;;;;;5063094;28;20408;-69
2021/11/20 08:54:49;;;;;;;10.77;8.90;;;;;;;;;;5078012;28;20404;-71
2021/11/20 08:57:33;;;;;;;11.77;7.93;;;;;;;;;;5084229;28;20457;-71
2021/11/20 09:00:08;;;;;;;13.13;9.35;;;;;;;;;;5066914;28;20386;-69
2021/11/20 09:02:43;;;;;;;11.32;8.80;;;;;;;;;;5048377;28;20812;-72
2021/11/20 09:05:22;;;;;;;9.50;8.52;;;;;;;;;;5077278;28;20922;-70
2021/11/20 09:08:03;;;;;;;11.20;9.50;;;;;;;;;;5083665;28;20873;-69
2021/11/20 09:10:45;;;;;;;10.38;8.80;;;;;;;;;;5082762;28;20377;-70
2021/11/20 09:13:37;;;;;;;12.07;8.90;;;;;;;;;;5082549;28;20399;-72
2021/11/20 09:16:10;;;;;;;9.98;8.55;;;;;;;;;;5061466;28;20393;-71
2021/11/20 09:18:43;;;;;;;10.57;8.87;;;;;;;;;;5067871;28;20756;-71
2021/11/20 09:21:16;;;;;;;8.82;7.93;;;;;;;;;;5065103;28;20399;-71
2021/11/20 09:23:51;;;;;;;11.97;9.00;;;;;;;;;;5081733;28;20389;-67
2021/11/20 09:26:24;;;;;;;11.02;8.45;;;;;;;;;;5082493;28;20384;-65
2021/11/20 09:28:55;;;;;;;10.85;8.38;;;;;;;;;;5074881;28;20882;-65
2021/11/20 09:31:43;;;;;;;10.65;8.43;;;;;;;;;;5073349;28;20457;-67
2021/11/20 09:34:20;;;;;;;9.40;7.80;;;;;;;;;;5083562;28;20469;-71
2021/11/20 09:36:52;;;;;;;9.00;8.20;;;;;;;;;;5083758;28;20404;-69
2021/11/20 09:39:31;;;;;;;8.98;8.00;;;;;;;;;;5061737;28;20406;-74
2021/11/20 09:42:21;;;;;;;9.95;8.18;;;;;;;;;;5058963;28;20404;-76
2021/11/20 09:44:56;;;;;;;9.38;8.50;;;;;;;;;;5085247;28;20380;-66
2021/11/20 09:47:33;;;;;;;9.63;8.40;;;;;;;;;;5085822;28;20445;-66
2021/11/20 09:50:29;;;;;;;11.90;8.27;;;;;;;;;;5077648;28;20390;-72
2021/11/20 09:53:02;;;;;;;17.95;10.07;;;;;;;;;;5071993;28;20396;-72
2021/11/20 09:55:35;;;;;;;29.65;12.23;;;;;;;;;;5074644;28;20398;-69
2021/11/20 09:58:15;;;;;;;29.98;13.32;;;;;;;;;;5080334;28;20388;-71
2021/11/20 10:00:47;;;;;;;27.90;12.20;;;;;;;;;;5057045;28;20394;-75
2021/11/20 10:03:32;;;;;;;23.58;11.82;;;;;;;;;;5080857;28;20499;-76
2021/11/20 10:06:04;;;;;;;20.42;12.02;;;;;;;;;;5057566;28;20874;-76
2021/11/20 10:08:34;;;;;;;21.02;12.27;;;;;;;;;;5081360;28;21622;-75
2021/11/20 10:11:09;;;;;;;19.17;12.18;;;;;;;;;;5096902;28;20393;-75
2021/11/20 10:14:07;;;;;;;18.70;12.32;;;;;;;;;;5087323;28;20403;-69
2021/11/20 10:16:56;;;;;;;16.58;10.88;;;;;;;;;;5078561;28;20414;-69
2021/11/20 10:19:32;;;;;;;16.60;10.77;;;;;;;;;;5069931;28;20587;-73
2021/11/20 10:22:21;;;;;;;18.73;11.17;;;;;;;;;;5084506;28;20387;-74
2021/11/20 10:25:09;;;;;;;14.03;9.97;;;;;;;;;;5070758;28;20855;-74
2021/11/20 10:27:56;;;;;;;14.18;9.40;;;;;;;;;;5095317;28;20400;-73
2021/11/20 10:30:33;;;;;;;14.20;10.10;;;;;;;;;;5092690;28;20851;-71
2021/11/20 10:33:13;;;;;;;10.32;8.73;;;;;;;;;;5072639;28;20393;-70
2021/11/20 10:36:01;;;;;;;14.57;8.85;;;;;;;;;;5070658;28;20418;-70
2021/11/20 10:38:32;;;;;;;12.30;8.32;;;;;;;;;;5091969;28;20392;-71
2021/11/20 10:41:05;;;;;;;12.07;8.88;;;;;;;;;;5067620;28;20406;-71
2021/11/20 10:43:45;;;;;;;11.20;8.13;;;;;;;;;;5072729;28;20851;-73
2021/11/20 10:46:20;;;;;;;10.32;8.15;;;;;;;;;;5069015;28;20403;-71
2021/11/20 10:49:27;;;;;;;9.77;7.93;;;;;;;;;;5065279;28;20404;-70
2021/11/20 10:52:17;;;;;;;9.10;7.47;;;;;;;;;;4994413;28;20486;-69
2021/11/20 10:55:05;;;;;;;11.88;7.40;;;;;;;;;;4998626;28;20440;-72
2021/11/20 10:57:45;;;;;;;9.77;7.60;;;;;;;;;;4993122;28;20784;-70
2021/11/20 11:00:16;;;;;;;7.75;6.95;;;;;;;;;;4998990;28;20418;-69
2021/11/20 11:02:55;;;;;;;7.22;6.53;;;;;;;;;;5002612;28;20419;-70
2021/11/20 11:05:29;;;;;;;7.78;6.68;;;;;;;;;;5001855;28;20678;-70
2021/11/20 11:08:19;;;;;;;7.40;6.60;;;;;;;;;;4995315;28;20418;-70
2021/11/20 11:11:17;;;;;;;7.97;6.47;;;;;;;;;;4995625;28;20475;-70
2021/11/20 11:14:08;;;;;;;7.53;6.72;;;;;;;;;;5036140;28;20407;-72
2021/11/20 11:16:48;;;;;;;6.85;6.20;;;;;;;;;;5048550;28;20429;-72
2021/11/20 11:19:42;;;;;;;7.63;6.30;;;;;;;;;;5038885;28;20390;-73
2021/11/20 11:22:21;;;;;;;7.43;6.32;;;;;;;;;;5058369;28;20414;-70
2021/11/20 11:25:09;;;;;;;7.60;6.77;;;;;;;;;;5043695;28;20620;-75
2021/11/20 11:28:04;;;;;;;7.55;6.50;;;;;;;;;;5052800;28;20406;-71
2021/11/20 11:30:47;;;;;;;8.18;6.13;;;;;;;;;;5044052;28;21159;-74
2021/11/20 11:33:21;;;;;;;7.60;6.43;;;;;;;;;;5027529;28;20393;-66
2021/11/20 11:36:13;;;;;;;7.00;6.30;;;;;;;;;;5030266;28;20392;-66
2021/11/20 11:38:57;;;;;;;6.88;6.18;;;;;;;;;;5035376;28;20795;-66
2021/11/20 11:41:39;;;;;;;7.43;6.22;;;;;;;;;;5043152;28;20908;-68
2021/11/20 11:44:30;;;;;;;8.10;6.40;;;;;;;;;;5045119;28;20435;-68
2021/11/20 11:47:19;;;;;;;6.32;5.82;;;;;;;;;;5023668;28;20418;-69
2021/11/20 11:49:56;;;;;;;8.13;6.28;;;;;;;;;;5048942;28;20393;-68
2021/11/20 11:52:41;;;;;;;6.25;5.65;;;;;;;;;;5050583;28;20414;-67
2021/11/20 11:55:42;;;;;;;6.63;6.00;;;;;;;;;;5042613;28;20416;-67
2021/11/20 11:58:22;;;;;;;6.07;5.47;;;;;;;;;;5043535;28;20405;-66
2021/11/20 12:01:14;;;;;;;6.13;5.53;;;;;;;;;;5018501;28;20407;-67
2021/11/20 12:03:47;;;;;;;5.78;5.28;;;;;;;;;;5037984;28;20504;-67
2021/11/20 12:06:48;;;;;;;5.97;5.47;;;;;;;;;;5037699;28;21405;-67
2021/11/20 12:09:23;;;;;;;5.97;5.47;;;;;;;;;;5032981;28;20935;-67
2021/11/20 12:12:12;;;;;;;5.78;5.28;;;;;;;;;;5043610;28;20491;-66
2021/11/20 12:15:17;;;;;;;5.80;5.05;;;;;;;;;;5044264;28;20770;-66
2021/11/20 12:17:54;;;;;;;4.38;3.97;;;;;;;;;;5018466;28;20418;-73
2021/11/20 12:20:54;;;;;;;4.72;3.50;;;;;;;;;;5024965;28;20407;-75
2021/11/20 12:23:36;;;;;;;3.67;3.33;;;;;;;;;;5037605;28;20413;-74
2021/11/20 12:26:16;;;;;;;3.83;3.30;;;;;;;;;;5040795;28;20874;-74
2021/11/20 12:28:59;;;;;;;3.57;3.27;;;;;;;;;;5027974;28;20465;-73
2021/11/20 12:31:50;;;;;;;4.43;3.10;;;;;;;;;;5038816;28;20427;-71
2021/11/20 12:34:39;;;;;;;3.45;3.15;;;;;;;;;;5043545;28;20639;-72
2021/11/20 12:37:28;;;;;;;4.07;3.55;;;;;;;;;;5041787;28;20409;-72
2021/11/20 12:40:26;;;;;;;4.05;3.42;;;;;;;;;;5044238;28;20422;-73
2021/11/20 12:43:15;;;;;;;3.60;3.30;;;;;;;;;;5036052;28;20498;-76
2021/11/20 12:46:03;;;;;;;3.40;3.10;;;;;;;;;;5041807;28;20404;-73
2021/11/20 12:48:43;;;;;;;3.47;3.17;;;;;;;;;;5044601;28;20935;-72
2021/11/20 12:51:19;;;;;;;3.58;2.80;;;;;;;;;;5035807;28;20418;-74
2021/11/20 12:53:59;;;;;;;4.03;3.30;;;;;;;;;;5038560;28;20434;-75
2021/11/20 12:56:43;;;;;;;3.58;3.28;;;;;;;;;;5054221;28;20874;-71
2021/11/20 12:59:24;;;;;;;3.60;2.85;;;;;;;;;;5018028;28;20424;-74
2021/11/20 13:01:59;;;;;;;3.20;2.90;;;;;;;;;;5034201;28;20778;-72
2021/11/20 13:04:44;;;;;;;3.20;2.90;;;;;;;;;;5037840;28;20410;-73
2021/11/20 13:07:16;;;;;;;4.00;3.10;;;;;;;;;;5041038;28;20424;-75
2021/11/20 13:10:08;;;;;;;6.88;3.58;;;;;;;;;;5023154;28;21001;-72
2021/11/20 13:12:54;;;;;;;7.60;3.80;;;;;;;;;;5039495;28;20411;-71
2021/11/20 13:15:59;;;;;;;7.40;3.80;;;;;;;;;;5050244;28;20402;-71
2021/11/20 13:18:34;;;;;;;7.75;3.80;;;;;;;;;;4978661;28;20408;-72
2021/11/20 13:21:20;;;;;;;8.57;3.95;;;;;;;;;;4969826;28;20406;-71
2021/11/20 13:23:50;;;;;;;6.15;3.67;;;;;;;;;;5043498;28;21080;-73
2021/11/20 13:26:23;;;;;;;10.35;3.80;;;;;;;;;;5017589;28;20398;-75
2021/11/20 13:28:57;;;;;;;5.70;3.45;;;;;;;;;;5039558;28;20856;-71
2021/11/20 13:31:39;;;;;;;5.93;3.13;;;;;;;;;;5046251;28;21896;-71
2021/11/20 13:34:12;;;;;;;7.25;3.30;;;;;;;;;;5040615;28;20406;-71
2021/11/20 13:36:44;;;;;;;5.90;3.10;;;;;;;;;;5056931;28;20415;-70
2021/11/20 13:39:17;;;;;;;5.80;2.92;;;;;;;;;;5040793;28;20801;-75
2021/11/20 13:41:54;;;;;;;5.05;2.90;;;;;;;;;;5044848;28;20399;-75
2021/11/20 13:44:31;;;;;;;5.95;3.45;;;;;;;;;;5025964;28;20384;-74
2021/11/20 13:47:01;;;;;;;4.93;3.30;;;;;;;;;;5046227;28;20382;-69
2021/11/20 13:49:32;;;;;;;4.43;3.45;;;;;;;;;;5036166;28;20706;-71
2021/11/20 13:52:15;;;;;;;4.78;3.20;;;;;;;;;;5028696;28;20412;-71
2021/11/20 13:54:56;;;;;;;6.55;3.30;;;;;;;;;;5040262;28;20403;-74
2021/11/20 13:57:31;;;;;;;4.00;2.97;;;;;;;;;;5048778;28;20929;-75
2021/11/20 14:00:11;;;;;;;5.35;3.17;;;;;;;;;;5045984;28;20406;-72
2021/11/20 14:02:55;;;;;;;4.82;3.22;;;;;;;;;;5012348;28;20415;-71
2021/11/20 14:05:45;;;;;;;3.80;3.30;;;;;;;;;;5038220;28;20383;-70
2021/11/20 14:08:17;;;;;;;5.43;3.60;;;;;;;;;;5030485;28;20453;-69
2021/11/20 14:11:02;;;;;;;5.60;3.28;;;;;;;;;;5025048;28;20408;-70
2021/11/20 14:13:35;;;;;;;5.18;3.35;;;;;;;;;;5025099;28;20400;-70
2021/11/20 14:16:12;;;;;;;10.80;3.87;;;;;;;;;;5037636;28;20403;-70
2021/11/20 14:18:46;;;;;;;5.63;3.70;;;;;;;;;;5032927;28;20417;-71
2021/11/20 14:21:16;;;;;;;5.47;3.10;;;;;;;;;;5029824;28;21296;-71
2021/11/20 14:24:04;;;;;;;5.30;3.33;;;;;;;;;;5028996;28;20407;-70
2021/11/20 14:26:44;;;;;;;4.53;3.30;;;;;;;;;;5035454;28;20894;-71
2021/11/20 14:29:20;;;;;;;5.03;3.50;;;;;;;;;;5028948;28;20900;-70
2021/11/20 14:31:51;;;;;;;4.38;3.20;;;;;;;;;;5042673;28;20453;-72
2021/11/20 14:34:30;;;;;;;4.57;3.47;;;;;;;;;;5045530;28;20762;-72
2021/11/20 14:37:11;;;;;;;4.80;3.42;;;;;;;;;;5017013;28;20404;-72
2021/11/20 14:39:40;;;;;;;4.93;3.50;;;;;;;;;;5024863;28;20430;-72
2021/11/20 14:42:11;;;;;;;4.55;3.35;;;;;;;;;;5013230;28;20802;-72
2021/11/20 14:45:19;;;;;;;5.43;3.78;;;;;;;;;;5043561;28;20415;-72
2021/11/20 14:47:59;;;;;;;3.97;3.40;;;;;;;;;;5040423;28;20479;-72
2021/11/20 14:50:36;;;;;;;5.03;3.25;;;;;;;;;;5026614;28;20408;-73
2021/11/20 14:53:10;;;;;;;5.65;3.45;;;;;;;;;;5020134;28;20427;-73
2021/11/20 14:55:41;;;;;;;4.00;3.28;;;;;;;;;;5037923;28;20411;-72
2021/11/20 14:58:10;;;;;;;3.60;3.30;;;;;;;;;;5039603;28;20416;-72
2021/11/20 15:00:42;;;;;;;4.00;3.40;;;;;;;;;;5025548;28;20394;-71
2021/11/20 15:03:13;;;;;;;4.32;3.40;;;;;;;;;;5051799;28;20414;-71
2021/11/20 15:05:46;;;;;;;3.88;3.10;;;;;;;;;;5054666;28;20392;-71
2021/11/20 15:08:19;;;;;;;4.03;3.17;;;;;;;;;;5062311;28;20431;-72
2021/11/20 15:10:49;;;;;;;3.63;3.10;;;;;;;;;;5067231;28;20881;-72
2021/11/20 15:13:23;;;;;;;3.72;3.30;;;;;;;;;;5062967;28;20394;-72
2021/11/20 15:16:03;;;;;;;3.50;3.13;;;;;;;;;;5070447;28;20432;-71
2021/11/20 15:18:34;;;;;;;3.67;3.30;;;;;;;;;;5054976;28;20505;-73
2021/11/20 15:21:05;;;;;;;5.78;3.30;;;;;;;;;;5056746;28;20427;-72
2021/11/20 15:23:37;;;;;;;6.63;4.07;;;;;;;;;;5063809;28;20405;-71
2021/11/20 15:26:09;;;;;;;4.07;3.50;;;;;;;;;;5081040;28;20378;-71
2021/11/20 15:28:41;;;;;;;4.23;3.83;;;;;;;;;;5063553;28;20465;-72
2021/11/20 15:31:18;;;;;;;4.78;3.72;;;;;;;;;;5066081;28;20462;-72
2021/11/20 15:33:47;;;;;;;4.40;4.00;;;;;;;;;;5048567;28;20473;-73
2021/11/20 15:36:17;;;;;;;6.27;4.23;;;;;;;;;;5080976;28;20401;-71
2021/11/20 15:38:46;;;;;;;6.45;4.15;;;;;;;;;;5063514;28;20394;-71
2021/11/20 15:41:17;;;;;;;4.90;3.72;;;;;;;;;;5047140;28;20444;-71